sensor_id;sensor_type;location;lat;lon;timestamp;P1;durP1;ratioP1;P2;durP2;ratioP2
19167;SDS011;9716;53.114;18.040;2023-07-20T00:00:46;4.50;;;2.40;;
19167;SDS011;9716;53.114;18.040;2023-07-20T00:03:32;4.35;;;2.33;;
19167;SDS011;9716;53.114;18.040;2023-07-20T00:06:02;2.67;;;2.00;;
19167;SDS011;9716;53.114;18.040;2023-07-20T00:08:30;3.22;;;1.98;;
19167;SDS011;9716;53.114;18.040;2023-07-20T00:10:59;8.43;;;2.63;;
19167;SDS011;9716;53.114;18.040;2023-07-20T00:13:27;3.45;;;2.10;;
19167;SDS011;9716;53.114;18.040;2023-07-20T00:15:56;3.03;;;2.17;;
19167;SDS011;9716;53.114;18.040;2023-07-20T00:18:24;4.43;;;2.42;;
19167;SDS011;9716;53.114;18.040;2023-07-20T00:20:53;5.28;;;2.25;;
19167;SDS011;9716;53.114;18.040;2023-07-20T00:23:23;2.13;;;1.90;;
19167;SDS011;9716;53.114;18.040;2023-07-20T00:25:51;6.43;;;2.65;;
19167;SDS011;9716;53.114;18.040;2023-07-20T00:28:20;2.30;;;2.00;;
19167;SDS011;9716;53.114;18.040;2023-07-20T00:30:48;2.83;;;2.10;;
19167;SDS011;9716;53.114;18.040;2023-07-20T00:33:17;4.78;;;2.63;;
19167;SDS011;9716;53.114;18.040;2023-07-20T00:35:46;3.35;;;2.13;;
19167;SDS011;9716;53.114;18.040;2023-07-20T00:38:14;10.27;;;2.33;;
19167;SDS011;9716;53.114;18.040;2023-07-20T00:40:44;5.07;;;2.72;;
19167;SDS011;9716;53.114;18.040;2023-07-20T00:43:12;3.25;;;2.55;;
19167;SDS011;9716;53.114;18.040;2023-07-20T00:45:41;3.55;;;2.63;;
19167;SDS011;9716;53.114;18.040;2023-07-20T00:48:11;4.43;;;2.65;;
19167;SDS011;9716;53.114;18.040;2023-07-20T00:50:41;3.83;;;2.65;;
19167;SDS011;9716;53.114;18.040;2023-07-20T00:53:10;4.90;;;2.65;;
19167;SDS011;9716;53.114;18.040;2023-07-20T00:55:39;3.28;;;2.22;;
19167;SDS011;9716;53.114;18.040;2023-07-20T00:58:09;2.90;;;2.35;;
19167;SDS011;9716;53.114;18.040;2023-07-20T01:00:38;3.17;;;2.30;;
19167;SDS011;9716;53.114;18.040;2023-07-20T01:03:06;7.10;;;2.80;;
19167;SDS011;9716;53.114;18.040;2023-07-20T01:05:37;4.07;;;2.30;;
19167;SDS011;9716;53.114;18.040;2023-07-20T01:08:11;3.97;;;2.25;;
19167;SDS011;9716;53.114;18.040;2023-07-20T01:10:43;6.00;;;2.65;;
19167;SDS011;9716;53.114;18.040;2023-07-20T01:13:19;4.10;;;1.95;;
19167;SDS011;9716;53.114;18.040;2023-07-20T01:15:49;3.03;;;2.20;;
19167;SDS011;9716;53.114;18.040;2023-07-20T01:18:18;2.95;;;2.22;;
19167;SDS011;9716;53.114;18.040;2023-07-20T01:20:47;6.97;;;2.63;;
19167;SDS011;9716;53.114;18.040;2023-07-20T01:23:22;4.13;;;2.58;;
19167;SDS011;9716;53.114;18.040;2023-07-20T01:26:12;6.50;;;2.63;;
19167;SDS011;9716;53.114;18.040;2023-07-20T01:29:01;3.72;;;2.63;;
19167;SDS011;9716;53.114;18.040;2023-07-20T01:31:42;6.03;;;2.67;;
19167;SDS011;9716;53.114;18.040;2023-07-20T01:34:12;2.60;;;2.33;;
19167;SDS011;9716;53.114;18.040;2023-07-20T01:36:45;4.70;;;2.28;;
19167;SDS011;9716;53.114;18.040;2023-07-20T01:39:16;3.75;;;2.13;;
19167;SDS011;9716;53.114;18.040;2023-07-20T01:41:45;3.80;;;2.60;;
19167;SDS011;9716;53.114;18.040;2023-07-20T01:44:14;3.95;;;2.28;;
19167;SDS011;9716;53.114;18.040;2023-07-20T01:46:44;3.97;;;2.30;;
19167;SDS011;9716;53.114;18.040;2023-07-20T01:49:12;2.80;;;1.92;;
19167;SDS011;9716;53.114;18.040;2023-07-20T01:51:41;5.15;;;2.35;;
19167;SDS011;9716;53.114;18.040;2023-07-20T01:54:09;5.53;;;2.50;;
19167;SDS011;9716;53.114;18.040;2023-07-20T01:56:37;6.43;;;2.60;;
19167;SDS011;9716;53.114;18.040;2023-07-20T01:59:06;2.88;;;1.90;;
19167;SDS011;9716;53.114;18.040;2023-07-20T02:01:34;5.00;;;2.47;;
19167;SDS011;9716;53.114;18.040;2023-07-20T02:04:04;5.40;;;2.67;;
19167;SDS011;9716;53.114;18.040;2023-07-20T02:06:32;5.97;;;2.75;;
19167;SDS011;9716;53.114;18.040;2023-07-20T02:09:01;3.28;;;2.38;;
19167;SDS011;9716;53.114;18.040;2023-07-20T02:11:29;4.50;;;2.50;;
19167;SDS011;9716;53.114;18.040;2023-07-20T02:13:58;6.85;;;2.97;;
19167;SDS011;9716;53.114;18.040;2023-07-20T02:16:26;6.57;;;2.67;;
19167;SDS011;9716;53.114;18.040;2023-07-20T02:18:55;4.72;;;2.85;;
19167;SDS011;9716;53.114;18.040;2023-07-20T02:21:26;5.30;;;2.83;;
19167;SDS011;9716;53.114;18.040;2023-07-20T02:23:54;3.90;;;2.85;;
19167;SDS011;9716;53.114;18.040;2023-07-20T02:26:24;2.80;;;2.22;;
19167;SDS011;9716;53.114;18.040;2023-07-20T02:28:53;5.50;;;2.72;;
19167;SDS011;9716;53.114;18.040;2023-07-20T02:31:21;2.33;;;2.13;;
19167;SDS011;9716;53.114;18.040;2023-07-20T02:33:50;3.60;;;2.35;;
19167;SDS011;9716;53.114;18.040;2023-07-20T02:36:18;3.05;;;2.25;;
19167;SDS011;9716;53.114;18.040;2023-07-20T02:38:48;5.18;;;2.47;;
19167;SDS011;9716;53.114;18.040;2023-07-20T02:41:17;3.25;;;2.20;;
19167;SDS011;9716;53.114;18.040;2023-07-20T02:43:45;3.55;;;2.45;;
19167;SDS011;9716;53.114;18.040;2023-07-20T02:46:14;3.72;;;2.55;;
19167;SDS011;9716;53.114;18.040;2023-07-20T02:48:42;3.22;;;2.22;;
19167;SDS011;9716;53.114;18.040;2023-07-20T02:51:11;4.03;;;2.20;;
19167;SDS011;9716;53.114;18.040;2023-07-20T02:53:39;5.65;;;2.38;;
19167;SDS011;9716;53.114;18.040;2023-07-20T02:56:09;4.43;;;2.28;;
19167;SDS011;9716;53.114;18.040;2023-07-20T02:58:40;3.08;;;2.10;;
19167;SDS011;9716;53.114;18.040;2023-07-20T03:01:12;4.07;;;2.30;;
19167;SDS011;9716;53.114;18.040;2023-07-20T03:03:42;5.75;;;2.15;;
19167;SDS011;9716;53.114;18.040;2023-07-20T03:06:14;4.03;;;2.15;;
19167;SDS011;9716;53.114;18.040;2023-07-20T03:08:43;2.55;;;1.75;;
19167;SDS011;9716;53.114;18.040;2023-07-20T03:11:15;2.45;;;1.77;;
19167;SDS011;9716;53.114;18.040;2023-07-20T03:13:44;4.97;;;2.15;;
19167;SDS011;9716;53.114;18.040;2023-07-20T03:16:14;5.00;;;2.10;;
19167;SDS011;9716;53.114;18.040;2023-07-20T03:18:45;4.25;;;2.40;;
19167;SDS011;9716;53.114;18.040;2023-07-20T03:21:14;3.55;;;2.38;;
19167;SDS011;9716;53.114;18.040;2023-07-20T03:23:42;6.35;;;2.65;;
19167;SDS011;9716;53.114;18.040;2023-07-20T03:26:11;3.33;;;2.60;;
19167;SDS011;9716;53.114;18.040;2023-07-20T03:28:41;10.27;;;2.47;;
19167;SDS011;9716;53.114;18.040;2023-07-20T03:31:10;3.85;;;2.45;;
19167;SDS011;9716;53.114;18.040;2023-07-20T03:33:38;4.80;;;2.85;;
19167;SDS011;9716;53.114;18.040;2023-07-20T03:36:09;3.97;;;2.30;;
19167;SDS011;9716;53.114;18.040;2023-07-20T03:38:37;4.22;;;2.58;;
19167;SDS011;9716;53.114;18.040;2023-07-20T03:41:06;3.40;;;2.40;;
19167;SDS011;9716;53.114;18.040;2023-07-20T03:43:34;6.00;;;2.60;;
19167;SDS011;9716;53.114;18.040;2023-07-20T03:46:04;11.52;;;2.22;;
19167;SDS011;9716;53.114;18.040;2023-07-20T03:48:34;5.00;;;2.22;;
19167;SDS011;9716;53.114;18.040;2023-07-20T03:51:02;2.50;;;1.90;;
19167;SDS011;9716;53.114;18.040;2023-07-20T03:53:31;13.20;;;2.88;;
19167;SDS011;9716;53.114;18.040;2023-07-20T03:55:59;10.02;;;2.10;;
19167;SDS011;9716;53.114;18.040;2023-07-20T03:58:28;4.68;;;2.30;;
19167;SDS011;9716;53.114;18.040;2023-07-20T04:00:59;4.60;;;2.42;;
19167;SDS011;9716;53.114;18.040;2023-07-20T04:03:29;2.75;;;2.33;;
19167;SDS011;9716;53.114;18.040;2023-07-20T04:05:58;2.70;;;2.15;;
19167;SDS011;9716;53.114;18.040;2023-07-20T04:08:26;3.17;;;1.92;;
19167;SDS011;9716;53.114;18.040;2023-07-20T04:10:55;4.63;;;2.20;;
19167;SDS011;9716;53.114;18.040;2023-07-20T04:13:23;3.50;;;1.90;;
19167;SDS011;9716;53.114;18.040;2023-07-20T04:15:51;2.28;;;2.08;;
19167;SDS011;9716;53.114;18.040;2023-07-20T04:18:20;2.10;;;1.80;;
19167;SDS011;9716;53.114;18.040;2023-07-20T04:20:50;2.72;;;1.90;;
19167;SDS011;9716;53.114;18.040;2023-07-20T04:23:18;1.70;;;1.58;;
19167;SDS011;9716;53.114;18.040;2023-07-20T04:25:47;3.22;;;1.85;;
19167;SDS011;9716;53.114;18.040;2023-07-20T04:28:15;3.28;;;1.90;;
19167;SDS011;9716;53.114;18.040;2023-07-20T04:30:44;3.38;;;2.10;;
19167;SDS011;9716;53.114;18.040;2023-07-20T04:33:12;5.18;;;2.20;;
19167;SDS011;9716;53.114;18.040;2023-07-20T04:35:47;8.43;;;2.00;;
19167;SDS011;9716;53.114;18.040;2023-07-20T04:38:19;3.13;;;1.95;;
19167;SDS011;9716;53.114;18.040;2023-07-20T04:40:48;3.28;;;1.73;;
19167;SDS011;9716;53.114;18.040;2023-07-20T04:43:17;3.55;;;1.80;;
19167;SDS011;9716;53.114;18.040;2023-07-20T04:45:46;3.42;;;1.58;;
19167;SDS011;9716;53.114;18.040;2023-07-20T04:48:15;1.90;;;1.58;;
19167;SDS011;9716;53.114;18.040;2023-07-20T04:50:45;3.88;;;1.60;;
19167;SDS011;9716;53.114;18.040;2023-07-20T04:53:15;2.50;;;1.50;;
19167;SDS011;9716;53.114;18.040;2023-07-20T04:55:47;4.10;;;2.00;;
19167;SDS011;9716;53.114;18.040;2023-07-20T04:58:17;1.83;;;1.52;;
19167;SDS011;9716;53.114;18.040;2023-07-20T05:00:47;3.33;;;2.17;;
19167;SDS011;9716;53.114;18.040;2023-07-20T05:03:15;2.42;;;1.65;;
19167;SDS011;9716;53.114;18.040;2023-07-20T05:05:46;5.38;;;1.20;;
19167;SDS011;9716;53.114;18.040;2023-07-20T05:08:17;5.50;;;1.55;;
19167;SDS011;9716;53.114;18.040;2023-07-20T05:10:45;2.10;;;1.17;;
19167;SDS011;9716;53.114;18.040;2023-07-20T05:13:14;1.60;;;1.27;;
19167;SDS011;9716;53.114;18.040;2023-07-20T05:15:42;2.60;;;1.27;;
19167;SDS011;9716;53.114;18.040;2023-07-20T05:18:11;1.65;;;1.30;;
19167;SDS011;9716;53.114;18.040;2023-07-20T05:20:39;1.95;;;1.45;;
19167;SDS011;9716;53.114;18.040;2023-07-20T05:23:08;7.13;;;1.65;;
19167;SDS011;9716;53.114;18.040;2023-07-20T05:25:38;13.77;;;1.50;;
19167;SDS011;9716;53.114;18.040;2023-07-20T05:28:06;0.95;;;0.90;;
19167;SDS011;9716;53.114;18.040;2023-07-20T05:30:35;5.53;;;1.65;;
19167;SDS011;9716;53.114;18.040;2023-07-20T05:33:03;6.30;;;1.50;;
19167;SDS011;9716;53.114;18.040;2023-07-20T05:35:32;2.30;;;1.13;;
19167;SDS011;9716;53.114;18.040;2023-07-20T05:38:00;1.65;;;1.23;;
19167;SDS011;9716;53.114;18.040;2023-07-20T05:40:31;0.95;;;0.90;;
19167;SDS011;9716;53.114;18.040;2023-07-20T05:43:01;2.47;;;1.45;;
19167;SDS011;9716;53.114;18.040;2023-07-20T05:45:30;6.13;;;1.30;;
19167;SDS011;9716;53.114;18.040;2023-07-20T05:47:58;1.52;;;1.42;;
19167;SDS011;9716;53.114;18.040;2023-07-20T05:50:27;3.00;;;1.30;;
19167;SDS011;9716;53.114;18.040;2023-07-20T05:52:55;2.38;;;1.30;;
19167;SDS011;9716;53.114;18.040;2023-07-20T05:55:24;14.57;;;1.92;;
19167;SDS011;9716;53.114;18.040;2023-07-20T05:57:52;3.40;;;1.60;;
19167;SDS011;9716;53.114;18.040;2023-07-20T06:00:24;12.10;;;1.65;;
19167;SDS011;9716;53.114;18.040;2023-07-20T06:02:53;2.50;;;1.52;;
19167;SDS011;9716;53.114;18.040;2023-07-20T06:05:22;5.03;;;1.98;;
19167;SDS011;9716;53.114;18.040;2023-07-20T06:07:54;5.07;;;1.65;;
19167;SDS011;9716;53.114;18.040;2023-07-20T06:10:24;8.77;;;1.88;;
19167;SDS011;9716;53.114;18.040;2023-07-20T06:12:53;4.45;;;1.92;;
19167;SDS011;9716;53.114;18.040;2023-07-20T06:15:28;4.63;;;1.70;;
19167;SDS011;9716;53.114;18.040;2023-07-20T06:18:12;3.85;;;1.30;;
19167;SDS011;9716;53.114;18.040;2023-07-20T06:20:41;2.58;;;1.23;;
19167;SDS011;9716;53.114;18.040;2023-07-20T06:23:09;5.68;;;1.50;;
19167;SDS011;9716;53.114;18.040;2023-07-20T06:25:38;4.32;;;1.45;;
19167;SDS011;9716;53.114;18.040;2023-07-20T06:28:06;2.88;;;1.50;;
19167;SDS011;9716;53.114;18.040;2023-07-20T06:30:36;3.53;;;1.23;;
19167;SDS011;9716;53.114;18.040;2023-07-20T06:33:04;1.65;;;1.23;;
19167;SDS011;9716;53.114;18.040;2023-07-20T06:35:34;1.83;;;1.05;;
19167;SDS011;9716;53.114;18.040;2023-07-20T06:38:02;2.13;;;1.35;;
19167;SDS011;9716;53.114;18.040;2023-07-20T06:40:34;7.68;;;1.30;;
19167;SDS011;9716;53.114;18.040;2023-07-20T06:43:02;7.00;;;1.60;;
19167;SDS011;9716;53.114;18.040;2023-07-20T06:45:34;1.48;;;0.90;;
19167;SDS011;9716;53.114;18.040;2023-07-20T06:48:03;1.88;;;0.90;;
19167;SDS011;9716;53.114;18.040;2023-07-20T06:50:32;0.80;;;0.70;;
19167;SDS011;9716;53.114;18.040;2023-07-20T06:53:01;2.22;;;1.20;;
19167;SDS011;9716;53.114;18.040;2023-07-20T06:55:30;4.00;;;1.17;;
19167;SDS011;9716;53.114;18.040;2023-07-20T06:58:07;1.50;;;0.93;;
19167;SDS011;9716;53.114;18.040;2023-07-20T07:00:36;1.60;;;0.93;;
19167;SDS011;9716;53.114;18.040;2023-07-20T07:03:06;1.73;;;1.02;;
19167;SDS011;9716;53.114;18.040;2023-07-20T07:05:35;2.13;;;1.20;;
19167;SDS011;9716;53.114;18.040;2023-07-20T07:08:05;1.60;;;0.98;;
19167;SDS011;9716;53.114;18.040;2023-07-20T07:10:35;2.95;;;1.27;;
19167;SDS011;9716;53.114;18.040;2023-07-20T07:13:03;3.95;;;1.00;;
19167;SDS011;9716;53.114;18.040;2023-07-20T07:15:33;1.20;;;1.00;;
19167;SDS011;9716;53.114;18.040;2023-07-20T07:18:02;2.00;;;1.20;;
19167;SDS011;9716;53.114;18.040;2023-07-20T07:20:33;4.32;;;1.10;;
19167;SDS011;9716;53.114;18.040;2023-07-20T07:23:01;2.13;;;1.15;;
19167;SDS011;9716;53.114;18.040;2023-07-20T07:25:30;1.27;;;1.10;;
19167;SDS011;9716;53.114;18.040;2023-07-20T07:27:58;1.65;;;0.93;;
19167;SDS011;9716;53.114;18.040;2023-07-20T07:30:27;2.00;;;1.10;;
19167;SDS011;9716;53.114;18.040;2023-07-20T07:32:58;1.38;;;1.00;;
19167;SDS011;9716;53.114;18.040;2023-07-20T07:35:27;1.13;;;1.02;;
19167;SDS011;9716;53.114;18.040;2023-07-20T07:37:57;1.38;;;1.05;;
19167;SDS011;9716;53.114;18.040;2023-07-20T07:40:46;1.35;;;1.20;;
19167;SDS011;9716;53.114;18.040;2023-07-20T07:43:14;1.92;;;1.10;;
19167;SDS011;9716;53.114;18.040;2023-07-20T07:45:43;1.65;;;0.75;;
19167;SDS011;9716;53.114;18.040;2023-07-20T07:48:11;0.93;;;0.88;;
19167;SDS011;9716;53.114;18.040;2023-07-20T07:50:41;1.30;;;0.68;;
19167;SDS011;9716;53.114;18.040;2023-07-20T07:53:10;1.58;;;0.95;;
19167;SDS011;9716;53.114;18.040;2023-07-20T07:55:39;2.30;;;1.05;;
19167;SDS011;9716;53.114;18.040;2023-07-20T07:58:08;0.82;;;0.80;;
19167;SDS011;9716;53.114;18.040;2023-07-20T08:00:36;4.60;;;1.10;;
19167;SDS011;9716;53.114;18.040;2023-07-20T08:03:05;1.33;;;1.02;;
19167;SDS011;9716;53.114;18.040;2023-07-20T08:05:35;3.33;;;1.33;;
19167;SDS011;9716;53.114;18.040;2023-07-20T08:08:04;8.23;;;1.30;;
19167;SDS011;9716;53.114;18.040;2023-07-20T08:10:34;1.30;;;1.10;;
19167;SDS011;9716;53.114;18.040;2023-07-20T08:13:02;3.22;;;1.00;;
19167;SDS011;9716;53.114;18.040;2023-07-20T08:15:31;0.70;;;0.70;;
19167;SDS011;9716;53.114;18.040;2023-07-20T08:17:59;0.70;;;0.70;;
19167;SDS011;9716;53.114;18.040;2023-07-20T08:20:28;1.13;;;0.93;;
19167;SDS011;9716;53.114;18.040;2023-07-20T08:22:58;0.77;;;0.70;;
19167;SDS011;9716;53.114;18.040;2023-07-20T08:25:27;1.17;;;1.05;;
19167;SDS011;9716;53.114;18.040;2023-07-20T08:27:57;1.40;;;0.88;;
19167;SDS011;9716;53.114;18.040;2023-07-20T08:30:37;1.10;;;1.00;;
19167;SDS011;9716;53.114;18.040;2023-07-20T08:33:09;7.68;;;1.02;;
19167;SDS011;9716;53.114;18.040;2023-07-20T08:35:38;1.38;;;0.68;;
19167;SDS011;9716;53.114;18.040;2023-07-20T08:38:07;1.88;;;1.25;;
19167;SDS011;9716;53.114;18.040;2023-07-20T08:40:38;1.20;;;0.85;;
19167;SDS011;9716;53.114;18.040;2023-07-20T08:43:09;0.70;;;0.70;;
19167;SDS011;9716;53.114;18.040;2023-07-20T08:45:39;0.55;;;0.55;;
19167;SDS011;9716;53.114;18.040;2023-07-20T08:48:08;1.30;;;0.90;;
19167;SDS011;9716;53.114;18.040;2023-07-20T08:50:39;0.70;;;0.70;;
19167;SDS011;9716;53.114;18.040;2023-07-20T08:53:08;1.55;;;0.70;;
19167;SDS011;9716;53.114;18.040;2023-07-20T08:55:38;1.17;;;0.90;;
19167;SDS011;9716;53.114;18.040;2023-07-20T08:58:08;2.67;;;1.05;;
19167;SDS011;9716;53.114;18.040;2023-07-20T09:00:41;0.50;;;0.50;;
19167;SDS011;9716;53.114;18.040;2023-07-20T09:03:12;0.80;;;0.80;;
19167;SDS011;9716;53.114;18.040;2023-07-20T09:05:42;0.65;;;0.65;;
19167;SDS011;9716;53.114;18.040;2023-07-20T09:08:12;1.80;;;0.85;;
19167;SDS011;9716;53.114;18.040;2023-07-20T09:10:40;1.60;;;0.70;;
19167;SDS011;9716;53.114;18.040;2023-07-20T09:13:10;1.25;;;0.60;;
19167;SDS011;9716;53.114;18.040;2023-07-20T09:15:45;1.92;;;0.60;;
19167;SDS011;9716;53.114;18.040;2023-07-20T09:18:23;1.25;;;0.80;;
19167;SDS011;9716;53.114;18.040;2023-07-20T09:20:52;1.25;;;0.70;;
19167;SDS011;9716;53.114;18.040;2023-07-20T09:23:20;0.50;;;0.50;;
19167;SDS011;9716;53.114;18.040;2023-07-20T09:25:59;0.85;;;0.68;;
19167;SDS011;9716;53.114;18.040;2023-07-20T09:28:29;0.98;;;0.68;;
19167;SDS011;9716;53.114;18.040;2023-07-20T09:30:57;1.42;;;0.65;;
19167;SDS011;9716;53.114;18.040;2023-07-20T09:33:39;0.70;;;0.70;;
19167;SDS011;9716;53.114;18.040;2023-07-20T09:36:29;0.60;;;0.57;;
19167;SDS011;9716;53.114;18.040;2023-07-20T09:39:03;0.52;;;0.52;;
19167;SDS011;9716;53.114;18.040;2023-07-20T09:41:39;0.60;;;0.60;;
19167;SDS011;9716;53.114;18.040;2023-07-20T09:44:14;0.68;;;0.68;;
19167;SDS011;9716;53.114;18.040;2023-07-20T09:46:47;0.70;;;0.55;;
19167;SDS011;9716;53.114;18.040;2023-07-20T09:49:19;0.57;;;0.50;;
19167;SDS011;9716;53.114;18.040;2023-07-20T09:51:50;0.95;;;0.60;;
19167;SDS011;9716;53.114;18.040;2023-07-20T09:54:21;0.40;;;0.40;;
19167;SDS011;9716;53.114;18.040;2023-07-20T09:56:51;2.10;;;0.50;;
19167;SDS011;9716;53.114;18.040;2023-07-20T09:59:21;0.50;;;0.50;;
19167;SDS011;9716;53.114;18.040;2023-07-20T10:01:53;0.93;;;0.60;;
19167;SDS011;9716;53.114;18.040;2023-07-20T10:04:32;0.57;;;0.57;;
19167;SDS011;9716;53.114;18.040;2023-07-20T10:07:05;3.30;;;0.77;;
19167;SDS011;9716;53.114;18.040;2023-07-20T10:09:39;0.63;;;0.63;;
19167;SDS011;9716;53.114;18.040;2023-07-20T10:12:09;0.70;;;0.70;;
19167;SDS011;9716;53.114;18.040;2023-07-20T10:14:49;0.50;;;0.50;;
19167;SDS011;9716;53.114;18.040;2023-07-20T10:17:26;2.05;;;0.60;;
19167;SDS011;9716;53.114;18.040;2023-07-20T10:19:55;0.70;;;0.50;;
19167;SDS011;9716;53.114;18.040;2023-07-20T10:22:29;0.70;;;0.65;;
19167;SDS011;9716;53.114;18.040;2023-07-20T10:25:08;0.73;;;0.73;;
19167;SDS011;9716;53.114;18.040;2023-07-20T10:27:37;0.63;;;0.50;;
19167;SDS011;9716;53.114;18.040;2023-07-20T10:30:09;0.50;;;0.50;;
19167;SDS011;9716;53.114;18.040;2023-07-20T10:32:39;0.50;;;0.50;;
19167;SDS011;9716;53.114;18.040;2023-07-20T10:35:12;0.50;;;0.50;;
19167;SDS011;9716;53.114;18.040;2023-07-20T10:37:45;1.50;;;0.65;;
19167;SDS011;9716;53.114;18.040;2023-07-20T10:40:28;0.73;;;0.60;;
19167;SDS011;9716;53.114;18.040;2023-07-20T10:42:59;0.40;;;0.40;;
19167;SDS011;9716;53.114;18.040;2023-07-20T10:48:20;5.07;;;0.57;;
19167;SDS011;9716;53.114;18.040;2023-07-20T10:51:09;0.52;;;0.52;;
19167;SDS011;9716;53.114;18.040;2023-07-20T10:53:40;0.75;;;0.65;;
19167;SDS011;9716;53.114;18.040;2023-07-20T10:56:11;0.60;;;0.60;;
19167;SDS011;9716;53.114;18.040;2023-07-20T10:58:44;0.73;;;0.60;;
19167;SDS011;9716;53.114;18.040;2023-07-20T11:01:14;0.68;;;0.68;;
19167;SDS011;9716;53.114;18.040;2023-07-20T11:03:48;1.10;;;0.60;;
19167;SDS011;9716;53.114;18.040;2023-07-20T11:06:29;0.60;;;0.60;;
19167;SDS011;9716;53.114;18.040;2023-07-20T11:09:03;0.50;;;0.50;;
19167;SDS011;9716;53.114;18.040;2023-07-20T11:11:35;0.50;;;0.50;;
19167;SDS011;9716;53.114;18.040;2023-07-20T11:14:06;0.32;;;0.32;;
19167;SDS011;9716;53.114;18.040;2023-07-20T11:16:41;0.60;;;0.60;;
19167;SDS011;9716;53.114;18.040;2023-07-20T11:19:14;1.30;;;0.55;;
19167;SDS011;9716;53.114;18.040;2023-07-20T11:21:47;0.60;;;0.60;;
19167;SDS011;9716;53.114;18.040;2023-07-20T11:24:29;0.50;;;0.50;;
19167;SDS011;9716;53.114;18.040;2023-07-20T11:26:59;0.40;;;0.40;;
19167;SDS011;9716;53.114;18.040;2023-07-20T11:29:28;1.65;;;0.70;;
19167;SDS011;9716;53.114;18.040;2023-07-20T11:32:01;0.60;;;0.60;;
19167;SDS011;9716;53.114;18.040;2023-07-20T11:34:32;0.60;;;0.60;;
19167;SDS011;9716;53.114;18.040;2023-07-20T11:37:01;1.65;;;0.73;;
19167;SDS011;9716;53.114;18.040;2023-07-20T11:39:34;2.38;;;0.90;;
19167;SDS011;9716;53.114;18.040;2023-07-20T11:42:02;1.48;;;0.60;;
19167;SDS011;9716;53.114;18.040;2023-07-20T11:44:32;1.05;;;0.70;;
19167;SDS011;9716;53.114;18.040;2023-07-20T11:47:03;0.52;;;0.52;;
19167;SDS011;9716;53.114;18.040;2023-07-20T11:49:36;0.65;;;0.55;;
19167;SDS011;9716;53.114;18.040;2023-07-20T11:52:06;0.93;;;0.82;;
19167;SDS011;9716;53.114;18.040;2023-07-20T11:54:36;0.70;;;0.60;;
19167;SDS011;9716;53.114;18.040;2023-07-20T11:57:15;11.48;;;0.90;;
19167;SDS011;9716;53.114;18.040;2023-07-20T11:59:52;4.65;;;1.00;;
19167;SDS011;9716;53.114;18.040;2023-07-20T12:02:26;2.92;;;1.10;;
19167;SDS011;9716;53.114;18.040;2023-07-20T12:04:56;0.82;;;0.75;;
19167;SDS011;9716;53.114;18.040;2023-07-20T12:07:25;1.83;;;1.05;;
19167;SDS011;9716;53.114;18.040;2023-07-20T12:10:05;1.85;;;0.93;;
19167;SDS011;9716;53.114;18.040;2023-07-20T12:12:37;2.40;;;0.77;;
19167;SDS011;9716;53.114;18.040;2023-07-20T12:15:14;3.50;;;1.13;;
19167;SDS011;9716;53.114;18.040;2023-07-20T12:17:45;9.05;;;0.88;;
19167;SDS011;9716;53.114;18.040;2023-07-20T12:20:24;0.57;;;0.57;;
19167;SDS011;9716;53.114;18.040;2023-07-20T12:22:52;0.98;;;0.63;;
19167;SDS011;9716;53.114;18.040;2023-07-20T12:25:23;0.93;;;0.70;;
19167;SDS011;9716;53.114;18.040;2023-07-20T12:28:01;2.05;;;0.93;;
19167;SDS011;9716;53.114;18.040;2023-07-20T12:30:33;2.17;;;0.98;;
19167;SDS011;9716;53.114;18.040;2023-07-20T12:33:03;1.85;;;0.82;;
19167;SDS011;9716;53.114;18.040;2023-07-20T12:35:35;2.85;;;1.00;;
19167;SDS011;9716;53.114;18.040;2023-07-20T12:38:04;1.08;;;0.60;;
19167;SDS011;9716;53.114;18.040;2023-07-20T12:40:33;0.60;;;0.60;;
19167;SDS011;9716;53.114;18.040;2023-07-20T12:43:03;2.83;;;0.75;;
19167;SDS011;9716;53.114;18.040;2023-07-20T12:45:32;0.40;;;0.40;;
19167;SDS011;9716;53.114;18.040;2023-07-20T12:48:03;2.08;;;1.05;;
19167;SDS011;9716;53.114;18.040;2023-07-20T12:50:32;12.63;;;1.13;;
19167;SDS011;9716;53.114;18.040;2023-07-20T12:53:01;3.92;;;0.95;;
19167;SDS011;9716;53.114;18.040;2023-07-20T12:55:31;0.82;;;0.63;;
19167;SDS011;9716;53.114;18.040;2023-07-20T12:58:00;3.15;;;0.50;;
19167;SDS011;9716;53.114;18.040;2023-07-20T13:00:29;0.85;;;0.70;;
19167;SDS011;9716;53.114;18.040;2023-07-20T13:02:58;0.70;;;0.70;;
19167;SDS011;9716;53.114;18.040;2023-07-20T13:05:36;2.05;;;0.60;;
19167;SDS011;9716;53.114;18.040;2023-07-20T13:08:07;1.83;;;1.08;;
19167;SDS011;9716;53.114;18.040;2023-07-20T13:10:38;2.10;;;0.90;;
19167;SDS011;9716;53.114;18.040;2023-07-20T13:13:07;0.55;;;0.55;;
19167;SDS011;9716;53.114;18.040;2023-07-20T13:15:40;0.55;;;0.55;;
19167;SDS011;9716;53.114;18.040;2023-07-20T13:18:10;1.77;;;0.85;;
19167;SDS011;9716;53.114;18.040;2023-07-20T13:20:40;0.40;;;0.40;;
19167;SDS011;9716;53.114;18.040;2023-07-20T13:23:09;0.68;;;0.68;;
19167;SDS011;9716;53.114;18.040;2023-07-20T13:25:37;0.95;;;0.68;;
19167;SDS011;9716;53.114;18.040;2023-07-20T13:28:07;1.42;;;0.85;;
19167;SDS011;9716;53.114;18.040;2023-07-20T13:30:36;2.95;;;0.60;;
19167;SDS011;9716;53.114;18.040;2023-07-20T13:33:06;0.50;;;0.50;;
19167;SDS011;9716;53.114;18.040;2023-07-20T13:35:40;8.07;;;1.00;;
19167;SDS011;9716;53.114;18.040;2023-07-20T13:38:12;0.95;;;0.70;;
19167;SDS011;9716;53.114;18.040;2023-07-20T13:40:40;0.60;;;0.60;;
19167;SDS011;9716;53.114;18.040;2023-07-20T13:43:09;0.85;;;0.68;;
19167;SDS011;9716;53.114;18.040;2023-07-20T13:45:39;0.57;;;0.57;;
19167;SDS011;9716;53.114;18.040;2023-07-20T13:48:10;0.98;;;0.90;;
19167;SDS011;9716;53.114;18.040;2023-07-20T13:50:44;0.63;;;0.63;;
19167;SDS011;9716;53.114;18.040;2023-07-20T13:53:27;1.10;;;0.60;;
19167;SDS011;9716;53.114;18.040;2023-07-20T13:55:58;0.73;;;0.55;;
19167;SDS011;9716;53.114;18.040;2023-07-20T13:58:30;3.05;;;0.50;;
19167;SDS011;9716;53.114;18.040;2023-07-20T14:00:59;0.63;;;0.63;;
19167;SDS011;9716;53.114;18.040;2023-07-20T14:03:27;0.57;;;0.57;;
19167;SDS011;9716;53.114;18.040;2023-07-20T14:05:57;0.88;;;0.70;;
19167;SDS011;9716;53.114;18.040;2023-07-20T14:08:29;1.45;;;0.80;;
19167;SDS011;9716;53.114;18.040;2023-07-20T14:10:57;0.57;;;0.50;;
19167;SDS011;9716;53.114;18.040;2023-07-20T14:13:29;0.75;;;0.50;;
19167;SDS011;9716;53.114;18.040;2023-07-20T14:16:13;0.88;;;0.68;;
19167;SDS011;9716;53.114;18.040;2023-07-20T14:18:41;0.50;;;0.50;;
19167;SDS011;9716;53.114;18.040;2023-07-20T14:21:18;0.50;;;0.50;;
19167;SDS011;9716;53.114;18.040;2023-07-20T14:23:48;1.08;;;0.65;;
19167;SDS011;9716;53.114;18.040;2023-07-20T14:26:20;7.50;;;0.63;;
19167;SDS011;9716;53.114;18.040;2023-07-20T14:28:49;0.40;;;0.40;;
19167;SDS011;9716;53.114;18.040;2023-07-20T14:31:19;0.40;;;0.40;;
19167;SDS011;9716;53.114;18.040;2023-07-20T14:33:47;2.60;;;0.70;;
19167;SDS011;9716;53.114;18.040;2023-07-20T14:36:20;0.60;;;0.60;;
19167;SDS011;9716;53.114;18.040;2023-07-20T14:38:52;0.50;;;0.50;;
19167;SDS011;9716;53.114;18.040;2023-07-20T14:41:21;0.43;;;0.43;;
19167;SDS011;9716;53.114;18.040;2023-07-20T14:43:50;0.52;;;0.40;;
19167;SDS011;9716;53.114;18.040;2023-07-20T14:46:19;0.93;;;0.68;;
19167;SDS011;9716;53.114;18.040;2023-07-20T14:48:47;1.02;;;0.57;;
19167;SDS011;9716;53.114;18.040;2023-07-20T14:51:20;0.38;;;0.38;;
19167;SDS011;9716;53.114;18.040;2023-07-20T14:53:48;0.43;;;0.43;;
19167;SDS011;9716;53.114;18.040;2023-07-20T14:56:17;0.75;;;0.60;;
19167;SDS011;9716;53.114;18.040;2023-07-20T14:58:46;0.57;;;0.57;;
19167;SDS011;9716;53.114;18.040;2023-07-20T15:01:15;0.50;;;0.50;;
19167;SDS011;9716;53.114;18.040;2023-07-20T15:03:43;0.50;;;0.50;;
19167;SDS011;9716;53.114;18.040;2023-07-20T15:06:12;0.98;;;0.52;;
19167;SDS011;9716;53.114;18.040;2023-07-20T15:08:42;0.80;;;0.50;;
19167;SDS011;9716;53.114;18.040;2023-07-20T15:11:10;0.40;;;0.40;;